Terminal Aerodrome Forecast
Issued by NWS Midland/Odessa, TX

Home | Current Version | Previous Version | Text Only | Print | Product List | Glossary On
Versions: 1 2 3 4 5 6 7 8 9 10 11 12 13 14 15 16 17 18 19 20 21
000
FTUS44 KMAF 232326
TAFMAF
TAF
KMAF 232326Z 2400/2424 18013G22KT P6SM SCT050 SCT120
      TEMPO 2402/2405 VRB15G30KT 3SM TSRA BKN050CB
     FM240500 17012KT P6SM SCT100 BKN200=

USA.gov is the U.S. government's official web portal to all federal, state and local government web resources and services.